createdAt,value
2022-12-28T00:00:00.981Z,6.53
2022-12-28T00:01:03.509Z,5.54
2022-12-28T00:02:06.158Z,3.61
2022-12-28T00:03:08.925Z,5.70
2022-12-28T00:04:11.602Z,5.75
2022-12-28T00:05:14.149Z,6.41
2022-12-28T00:06:17.488Z,4.92
2022-12-28T00:07:20.042Z,6.46
2022-12-28T00:08:22.578Z,6.93
2022-12-28T00:09:25.152Z,5.45
2022-12-28T00:11:09.102Z,6.35
2022-12-28T00:11:32.144Z,4.23
2022-12-28T00:12:34.672Z,5.46
2022-12-28T00:13:37.170Z,6.66
2022-12-28T00:14:39.718Z,4.68
2022-12-28T00:15:42.248Z,7.39
2022-12-28T00:16:45.253Z,8.04
2022-12-28T00:17:47.841Z,4.59
2022-12-28T00:18:50.392Z,6.13
2022-12-28T00:19:52.898Z,7.09
2022-12-28T00:20:55.542Z,5.35
2022-12-28T00:21:58.074Z,5.71
2022-12-28T00:23:00.602Z,5.55
2022-12-28T00:24:03.131Z,5.45
2022-12-28T00:25:05.606Z,5.35
2022-12-28T00:26:08.857Z,5.62
2022-12-28T00:27:11.390Z,6.42
2022-12-28T00:28:13.908Z,6.44
2022-12-28T00:29:16.467Z,4.38
2022-12-28T00:30:20.426Z,3.49
2022-12-28T00:31:22.973Z,3.33
2022-12-28T00:32:25.487Z,3.78
2022-12-28T00:33:28.025Z,4.47
2022-12-28T00:34:30.589Z,3.65
2022-12-28T00:35:33.144Z,4.83
2022-12-28T00:37:09.999Z,2.92
2022-12-28T00:37:40.413Z,2.95
2022-12-28T00:38:42.966Z,2.83
2022-12-28T00:39:46.610Z,2.83
2022-12-28T00:40:49.602Z,2.76
2022-12-28T00:41:52.134Z,2.68
2022-12-28T00:42:54.668Z,1.95
2022-12-28T00:43:57.195Z,2.10
2022-12-28T00:44:59.731Z,2.03
2022-12-28T00:46:02.685Z,1.69
2022-12-28T00:47:05.586Z,1.25
2022-12-28T00:48:08.151Z,1.13
2022-12-28T00:49:10.681Z,0.85
2022-12-28T00:50:13.931Z,1.02
2022-12-28T00:51:16.493Z,0.89
2022-12-28T00:52:19.038Z,0.92
2022-12-28T00:53:21.562Z,0.97
2022-12-28T00:54:24.087Z,0.83
2022-12-28T00:55:26.619Z,1.07
2022-12-28T00:56:29.597Z,0.72
2022-12-28T00:57:32.128Z,0.98
2022-12-28T00:58:34.797Z,0.48
2022-12-28T00:59:37.326Z,0.80
2022-12-28T01:00:40.013Z,0.99
2022-12-28T01:01:42.751Z,0.71
2022-12-28T01:02:45.676Z,0.55
2022-12-28T01:03:48.190Z,1.07
2022-12-28T01:04:50.722Z,0.62
2022-12-28T01:05:53.272Z,0.62
2022-12-28T01:06:56.031Z,0.85
2022-12-28T01:07:58.559Z,0.91
2022-12-28T01:09:01.088Z,0.77
2022-12-28T01:10:03.678Z,0.89
2022-12-28T01:11:06.236Z,0.58
2022-12-28T01:12:08.826Z,0.77
2022-12-28T01:13:11.337Z,0.67
2022-12-28T01:14:13.915Z,1.09
2022-12-28T01:15:16.420Z,0.93
2022-12-28T01:16:19.080Z,0.69
2022-12-28T01:17:21.808Z,0.66
2022-12-28T01:18:24.333Z,1.10
2022-12-28T01:19:26.859Z,0.67
2022-12-28T01:20:29.401Z,0.55
2022-12-28T01:21:31.947Z,0.63
2022-12-28T01:22:34.505Z,0.53
2022-12-28T01:23:37.049Z,0.83
2022-12-28T01:24:39.618Z,0.68
2022-12-28T01:25:42.114Z,0.56
2022-12-28T01:26:44.839Z,0.80
2022-12-28T01:27:47.411Z,0.66
2022-12-28T01:28:49.938Z,0.74
2022-12-28T01:29:52.467Z,0.80
2022-12-28T01:30:55.259Z,0.66
2022-12-28T01:31:57.856Z,0.61
2022-12-28T01:33:00.566Z,0.95
2022-12-28T01:34:03.128Z,0.87
2022-12-28T01:35:05.618Z,0.75
2022-12-28T01:36:08.600Z,0.92
2022-12-28T01:37:11.113Z,0.98
2022-12-28T01:38:13.701Z,0.89
2022-12-28T01:39:16.224Z,0.77
2022-12-28T01:40:19.209Z,1.01
2022-12-28T01:41:21.733Z,0.93
2022-12-28T01:42:24.267Z,1.03
2022-12-28T01:43:29.733Z,0.76
2022-12-28T01:44:31.216Z,0.65
2022-12-28T01:45:33.771Z,0.62
2022-12-28T01:46:36.595Z,0.63
2022-12-28T01:47:39.137Z,0.67
2022-12-28T01:48:41.711Z,0.89
2022-12-28T01:49:44.248Z,0.93
2022-12-28T01:50:46.875Z,0.68
2022-12-28T01:51:49.653Z,0.57
2022-12-28T01:52:52.180Z,0.61
2022-12-28T01:53:54.742Z,0.57
2022-12-28T01:54:57.178Z,0.77
2022-12-28T01:55:59.708Z,0.67
2022-12-28T01:57:02.263Z,0.54
2022-12-28T01:58:04.799Z,0.59
2022-12-28T01:59:07.361Z,0.85
2022-12-28T02:00:10.291Z,0.62
2022-12-28T02:01:12.835Z,0.67
2022-12-28T02:02:15.722Z,0.80
2022-12-28T02:03:18.686Z,0.64
2022-12-28T02:04:21.628Z,0.77
2022-12-28T02:05:24.153Z,0.52
2022-12-28T02:06:26.891Z,0.62
2022-12-28T02:07:29.420Z,0.36
2022-12-28T02:08:32.155Z,0.75
2022-12-28T02:09:34.723Z,0.81
2022-12-28T02:10:44.000Z,1.31
2022-12-28T02:11:41.957Z,0.64
2022-12-28T02:12:44.547Z,0.81
2022-12-28T02:13:47.155Z,0.57
2022-12-28T02:14:49.715Z,0.92
2022-12-28T02:15:52.237Z,0.71
2022-12-28T02:16:55.176Z,0.94
2022-12-28T02:17:57.854Z,0.98
2022-12-28T02:19:00.338Z,0.56
2022-12-28T02:20:03.104Z,0.57
2022-12-28T02:21:05.632Z,0.75
2022-12-28T02:22:08.155Z,0.93
2022-12-28T02:23:10.586Z,0.89
2022-12-28T02:24:13.013Z,0.85
2022-12-28T02:25:15.601Z,0.66
2022-12-28T02:26:18.557Z,0.58
2022-12-28T02:27:21.204Z,0.77
2022-12-28T02:28:23.757Z,0.75
2022-12-28T02:29:26.305Z,0.80
2022-12-28T02:30:29.305Z,0.60
2022-12-28T02:31:31.815Z,0.68
2022-12-28T02:32:34.464Z,0.51
2022-12-28T02:33:36.998Z,0.45
2022-12-28T02:34:39.523Z,0.74
2022-12-28T02:35:42.119Z,0.61
2022-12-28T02:36:44.879Z,0.68
2022-12-28T02:37:47.612Z,0.68
2022-12-28T02:38:50.217Z,0.61
2022-12-28T02:39:52.767Z,0.54
2022-12-28T02:40:55.648Z,0.63
2022-12-28T02:41:58.186Z,0.60
2022-12-28T02:43:00.722Z,0.84
2022-12-28T02:44:03.367Z,0.51
2022-12-28T02:45:05.918Z,0.56
2022-12-28T02:46:09.073Z,0.34
2022-12-28T02:47:11.638Z,0.71
2022-12-28T02:48:14.172Z,0.73
2022-12-28T02:49:16.820Z,0.81
2022-12-28T02:50:19.973Z,0.84
2022-12-28T02:51:22.609Z,0.60
2022-12-28T02:52:25.153Z,0.86
2022-12-28T02:53:27.699Z,0.75
2022-12-28T02:54:30.362Z,1.01
2022-12-28T02:55:33.069Z,0.74
2022-12-28T02:56:35.744Z,0.85
2022-12-28T02:57:38.297Z,0.75
2022-12-28T02:58:40.833Z,1.19
2022-12-28T02:59:43.379Z,0.97
2022-12-28T03:00:46.252Z,0.95
2022-12-28T03:01:49.714Z,1.39
2022-12-28T03:02:52.271Z,0.70
2022-12-28T03:03:54.929Z,0.95
2022-12-28T03:04:57.472Z,0.91
2022-12-28T03:06:00.028Z,0.60
2022-12-28T03:07:02.637Z,0.80
2022-12-28T03:08:05.145Z,0.56
2022-12-28T03:09:07.658Z,1.02
2022-12-28T03:10:10.600Z,1.29
2022-12-28T03:11:15.765Z,0.82
2022-12-28T03:12:17.518Z,0.82
2022-12-28T03:13:20.057Z,1.25
2022-12-28T03:14:22.815Z,0.79
2022-12-28T03:15:25.350Z,0.65
2022-12-28T03:16:28.188Z,0.83
2022-12-28T03:17:30.762Z,1.15
2022-12-28T03:18:33.296Z,0.70
2022-12-28T03:19:35.847Z,1.10
2022-12-28T03:20:38.871Z,0.83
2022-12-28T03:21:41.444Z,1.57
2022-12-28T03:22:43.997Z,0.78
2022-12-28T03:23:46.534Z,0.93
2022-12-28T03:24:49.069Z,0.65
2022-12-28T03:25:52.316Z,0.90
2022-12-28T03:26:55.177Z,0.93
2022-12-28T03:27:57.757Z,1.23
2022-12-28T03:29:00.303Z,1.78
2022-12-28T03:30:03.156Z,1.49
2022-12-28T03:31:05.726Z,1.42
2022-12-28T03:32:08.261Z,0.77
2022-12-28T03:33:10.843Z,1.43
2022-12-28T03:34:13.375Z,0.97
2022-12-28T03:35:15.942Z,1.45
2022-12-28T03:36:18.859Z,0.93
2022-12-28T03:37:21.486Z,1.07
2022-12-28T03:38:24.072Z,0.96
2022-12-28T03:39:26.598Z,1.25
2022-12-28T03:40:29.269Z,0.99
2022-12-28T03:41:31.772Z,1.47
2022-12-28T03:42:34.314Z,0.90
2022-12-28T03:43:36.900Z,1.95
2022-12-28T03:44:39.425Z,1.25
2022-12-28T03:45:45.297Z,0.99
2022-12-28T03:46:46.543Z,1.47
2022-12-28T03:47:49.047Z,0.95
2022-12-28T03:48:51.617Z,1.00
2022-12-28T03:49:54.155Z,0.85
2022-12-28T03:50:57.217Z,1.14
2022-12-28T03:51:59.750Z,1.13
2022-12-28T03:53:02.295Z,1.03
2022-12-28T03:54:04.913Z,1.00
2022-12-28T03:55:07.446Z,1.22
2022-12-28T03:56:10.800Z,1.37
2022-12-28T03:57:13.331Z,1.16
2022-12-28T03:58:16.171Z,1.02
2022-12-28T03:59:18.683Z,1.35
2022-12-28T04:00:21.498Z,1.28
2022-12-28T04:01:24.142Z,1.27
2022-12-28T04:02:26.909Z,0.92
2022-12-28T04:03:29.563Z,1.15
2022-12-28T04:04:32.193Z,1.38
2022-12-28T04:05:34.730Z,0.87
2022-12-28T04:06:37.779Z,0.91
2022-12-28T04:07:40.311Z,1.11
2022-12-28T04:08:42.851Z,0.87
2022-12-28T04:09:45.428Z,1.68
2022-12-28T04:10:48.477Z,1.10
2022-12-28T04:11:51.020Z,1.37
2022-12-28T04:12:53.562Z,1.05
2022-12-28T04:13:56.127Z,1.37
2022-12-28T04:14:58.701Z,1.29
2022-12-28T04:16:01.316Z,1.87
2022-12-28T04:17:03.926Z,1.69
2022-12-28T04:18:06.460Z,1.77
2022-12-28T04:19:09.019Z,2.38
2022-12-28T04:20:12.303Z,1.49
2022-12-28T04:21:14.875Z,1.25
2022-12-28T04:22:18.568Z,1.44
2022-12-28T04:23:21.099Z,1.61
2022-12-28T04:24:23.631Z,0.97
2022-12-28T04:25:26.213Z,1.88
2022-12-28T04:26:28.860Z,1.07
2022-12-28T04:27:31.411Z,1.05
2022-12-28T04:28:33.949Z,1.09
2022-12-28T04:29:36.484Z,1.97
2022-12-28T04:30:39.262Z,2.17
2022-12-28T04:31:42.137Z,0.97
2022-12-28T04:32:44.647Z,1.30
2022-12-28T04:33:47.260Z,3.95
2022-12-28T04:34:49.711Z,2.07
2022-12-28T04:35:52.304Z,1.42
2022-12-28T04:36:55.238Z,1.82
2022-12-28T04:37:57.776Z,1.73
2022-12-28T04:39:00.304Z,1.39
2022-12-28T04:40:03.301Z,0.95
2022-12-28T04:41:05.828Z,1.45
2022-12-28T04:42:08.414Z,1.79
2022-12-28T04:43:10.941Z,1.48
2022-12-28T04:44:13.471Z,1.75
2022-12-28T04:45:21.706Z,1.53
2022-12-28T04:46:20.568Z,1.58
2022-12-28T04:47:23.090Z,0.95
2022-12-28T04:48:25.642Z,1.29
2022-12-28T04:49:28.197Z,1.07
2022-12-28T04:50:30.810Z,1.81
2022-12-28T04:51:33.366Z,1.68
2022-12-28T04:52:35.911Z,1.54
2022-12-28T04:53:38.458Z,0.87
2022-12-28T04:54:40.967Z,2.51
2022-12-28T04:55:43.497Z,1.42
2022-12-28T04:56:46.389Z,1.55
2022-12-28T04:57:48.926Z,1.08
2022-12-28T04:58:51.462Z,0.85
2022-12-28T04:59:54.033Z,1.50
2022-12-28T05:00:57.052Z,1.41
2022-12-28T05:02:00.134Z,0.87
2022-12-28T05:03:02.999Z,0.91
2022-12-28T05:04:07.376Z,0.81
2022-12-28T05:05:09.901Z,0.91
2022-12-28T05:06:13.436Z,1.24
2022-12-28T05:07:16.001Z,1.30
2022-12-28T05:08:18.538Z,0.73
2022-12-28T05:09:21.094Z,0.73
2022-12-28T05:10:23.736Z,0.76
2022-12-28T05:11:26.272Z,1.27
2022-12-28T05:12:28.861Z,0.72
2022-12-28T05:13:31.416Z,0.85
2022-12-28T05:14:37.218Z,1.27
2022-12-28T05:15:38.353Z,1.35
2022-12-28T05:16:41.071Z,1.25
2022-12-28T05:17:43.888Z,0.84
2022-12-28T05:18:46.446Z,1.35
2022-12-28T05:19:49.025Z,1.10
2022-12-28T05:20:51.577Z,1.25
2022-12-28T05:21:54.109Z,0.79
2022-12-28T05:22:56.694Z,1.25
2022-12-28T05:23:59.244Z,0.69
2022-12-28T05:25:01.884Z,1.17
2022-12-28T05:26:05.026Z,0.82
2022-12-28T05:27:07.575Z,1.27
2022-12-28T05:28:10.163Z,1.04
2022-12-28T05:29:12.657Z,1.53
2022-12-28T05:30:15.700Z,1.02
2022-12-28T05:31:18.543Z,0.82
2022-12-28T05:32:21.180Z,1.25
2022-12-28T05:33:23.761Z,1.33
2022-12-28T05:34:26.321Z,0.69
2022-12-28T05:35:28.819Z,1.21
2022-12-28T05:36:31.802Z,0.98
2022-12-28T05:37:34.354Z,0.81
2022-12-28T05:38:36.996Z,0.83
2022-12-28T05:39:39.541Z,1.35
2022-12-28T05:40:42.711Z,0.78
2022-12-28T05:41:45.257Z,0.95
2022-12-28T05:42:51.393Z,0.58
2022-12-28T05:43:52.183Z,1.11
2022-12-28T05:44:54.708Z,1.42
2022-12-28T05:45:57.259Z,0.94
2022-12-28T05:47:00.034Z,2.09
2022-12-28T05:48:02.512Z,0.87
2022-12-28T05:49:05.022Z,1.16
2022-12-28T05:50:08.264Z,1.01
2022-12-28T05:51:10.812Z,1.16
2022-12-28T05:52:13.364Z,2.39
2022-12-28T05:53:15.921Z,1.28
2022-12-28T05:54:18.491Z,1.33
2022-12-28T05:55:21.023Z,1.23
2022-12-28T05:56:23.565Z,1.27
2022-12-28T05:57:26.111Z,1.14
2022-12-28T05:58:28.636Z,1.55
2022-12-28T05:59:31.240Z,1.22
2022-12-28T06:00:33.982Z,0.93
2022-12-28T06:01:36.663Z,1.37
2022-12-28T06:02:39.470Z,1.27
2022-12-28T06:03:42.409Z,1.27
2022-12-28T06:04:45.040Z,1.43
2022-12-28T06:05:47.604Z,1.42
2022-12-28T06:06:50.314Z,0.85
2022-12-28T06:07:52.883Z,1.37
2022-12-28T06:08:55.411Z,1.15
2022-12-28T06:09:58.008Z,1.03
2022-12-28T06:11:00.761Z,1.09
2022-12-28T06:12:03.286Z,0.65
2022-12-28T06:13:05.833Z,1.29
2022-12-28T06:14:08.363Z,1.01
2022-12-28T06:15:11.136Z,0.93
2022-12-28T06:16:13.987Z,1.19
2022-12-28T06:17:16.496Z,0.95
2022-12-28T06:18:19.029Z,1.07
2022-12-28T06:19:21.566Z,0.87
2022-12-28T06:20:24.451Z,1.52
2022-12-28T06:21:26.974Z,1.08
2022-12-28T06:22:29.573Z,1.31
2022-12-28T06:23:32.122Z,1.81
2022-12-28T06:24:34.633Z,1.75
2022-12-28T06:25:37.201Z,1.57
2022-12-28T06:26:40.143Z,2.36
2022-12-28T06:27:42.661Z,1.86
2022-12-28T06:28:45.223Z,1.79
2022-12-28T06:29:47.743Z,1.09
2022-12-28T06:30:52.864Z,1.02
2022-12-28T06:31:54.900Z,1.79
2022-12-28T06:32:57.632Z,1.09
2022-12-28T06:34:00.160Z,1.45
2022-12-28T06:35:02.697Z,1.27
2022-12-28T06:36:05.368Z,1.58
2022-12-28T06:37:07.895Z,1.36
2022-12-28T06:38:10.472Z,1.05
2022-12-28T06:39:12.998Z,1.47
2022-12-28T06:40:16.342Z,1.47
2022-12-28T06:41:18.924Z,1.35
2022-12-28T06:42:21.468Z,1.61
2022-12-28T06:43:24.007Z,1.81
2022-12-28T06:44:26.561Z,1.29
2022-12-28T06:45:29.286Z,1.54
2022-12-28T06:46:32.425Z,1.27
2022-12-28T06:47:34.954Z,2.01
2022-12-28T06:48:37.500Z,2.36
2022-12-28T06:49:40.028Z,1.72
2022-12-28T06:50:42.753Z,2.21
2022-12-28T06:51:45.351Z,1.59
2022-12-28T06:52:47.877Z,1.47
2022-12-28T06:53:50.456Z,1.29
2022-12-28T06:54:52.988Z,1.22
2022-12-28T06:55:57.256Z,1.79
2022-12-28T06:57:00.129Z,1.48
2022-12-28T06:58:02.718Z,1.03
2022-12-28T06:59:05.260Z,1.46
2022-12-28T07:00:08.665Z,1.41
2022-12-28T07:01:11.285Z,1.91
2022-12-28T07:02:14.145Z,1.31
2022-12-28T07:03:16.971Z,2.78
2022-12-28T07:04:19.867Z,1.51
2022-12-28T07:05:22.413Z,1.28
2022-12-28T07:06:25.161Z,1.54
2022-12-28T07:07:27.736Z,0.91
2022-12-28T07:08:30.280Z,1.34
2022-12-28T07:09:32.834Z,1.23
2022-12-28T07:10:35.565Z,1.77
2022-12-28T07:11:38.001Z,1.50
2022-12-28T07:12:40.563Z,1.93
2022-12-28T07:13:43.008Z,1.49
2022-12-28T07:14:45.562Z,2.07
2022-12-28T07:15:48.088Z,2.31
2022-12-28T07:16:51.068Z,2.07
2022-12-28T07:17:53.674Z,2.14
2022-12-28T07:18:56.339Z,3.29
2022-12-28T07:19:58.882Z,2.32
2022-12-28T07:21:01.721Z,2.09
2022-12-28T07:22:04.268Z,3.53
2022-12-28T07:23:06.936Z,3.33
2022-12-28T07:24:09.517Z,2.51
2022-12-28T07:25:12.028Z,2.97
2022-12-28T07:26:16.593Z,2.58
2022-12-28T07:27:19.152Z,2.49
2022-12-28T07:28:21.724Z,1.67
2022-12-28T07:29:24.683Z,2.08
2022-12-28T07:30:27.692Z,1.57
2022-12-28T07:31:30.485Z,1.44
2022-12-28T07:32:33.024Z,1.91
2022-12-28T07:33:35.596Z,1.90
2022-12-28T07:34:38.131Z,2.52
2022-12-28T07:35:40.675Z,0.81
2022-12-28T07:36:43.529Z,1.04
2022-12-28T07:37:46.062Z,1.47
2022-12-28T07:38:48.631Z,1.63
2022-12-28T07:39:51.069Z,1.09
2022-12-28T07:40:53.943Z,1.90
2022-12-28T07:41:56.502Z,1.89
2022-12-28T07:42:59.034Z,1.75
2022-12-28T07:44:01.602Z,1.52
2022-12-28T07:45:04.406Z,1.92
2022-12-28T07:46:07.259Z,1.49
2022-12-28T07:47:09.764Z,1.83
2022-12-28T07:48:12.632Z,2.51
2022-12-28T07:49:15.208Z,2.26
2022-12-28T07:50:18.247Z,2.06
2022-12-28T07:51:20.797Z,2.16
2022-12-28T07:52:23.313Z,1.84
2022-12-28T07:53:25.854Z,1.42
2022-12-28T07:54:28.440Z,1.61
2022-12-28T07:55:30.965Z,1.85
2022-12-28T07:57:35.859Z,1.87
2022-12-28T07:58:38.698Z,1.13
2022-12-28T07:59:41.279Z,1.53
2022-12-28T08:00:44.089Z,1.39
2022-12-28T08:01:46.737Z,2.25
2022-12-28T08:02:49.374Z,1.71
2022-12-28T08:03:51.980Z,1.65
2022-12-28T08:04:54.717Z,1.10
2022-12-28T08:05:57.283Z,2.43
2022-12-28T08:07:00.015Z,2.17
2022-12-28T08:08:03.994Z,2.69
2022-12-28T08:09:06.610Z,1.69
2022-12-28T08:10:09.710Z,2.74
2022-12-28T08:11:12.236Z,1.65
2022-12-28T08:12:14.804Z,0.93
2022-12-28T08:13:18.548Z,1.69
2022-12-28T08:14:21.078Z,2.65
2022-12-28T08:15:23.668Z,1.63
2022-12-28T08:16:26.490Z,1.67
2022-12-28T08:17:29.113Z,2.27
2022-12-28T08:18:31.646Z,2.34
2022-12-28T08:19:34.149Z,1.62
2022-12-28T08:20:36.895Z,2.10
2022-12-28T08:21:39.426Z,2.42
2022-12-28T08:22:41.962Z,1.75
2022-12-28T08:23:44.608Z,1.30
2022-12-28T08:24:47.149Z,2.75
2022-12-28T08:25:49.957Z,1.76
2022-12-28T08:26:52.673Z,1.09
2022-12-28T08:27:55.228Z,2.29
2022-12-28T08:28:57.799Z,2.07
2022-12-28T08:30:00.367Z,1.79
2022-12-28T08:31:03.031Z,2.02
2022-12-28T08:32:05.623Z,1.81
2022-12-28T08:33:08.174Z,1.95
2022-12-28T08:34:10.702Z,2.01
2022-12-28T08:35:13.224Z,2.36
2022-12-28T08:36:16.302Z,1.95
2022-12-28T08:37:18.836Z,1.48
2022-12-28T08:38:21.379Z,1.77
2022-12-28T08:39:23.923Z,0.96
2022-12-28T08:40:26.649Z,1.42
2022-12-28T08:41:29.212Z,2.49
2022-12-28T08:42:31.808Z,2.38
2022-12-28T08:43:34.337Z,3.23
2022-12-28T08:44:36.871Z,2.01
2022-12-28T08:45:40.588Z,2.08
2022-12-28T08:46:43.358Z,2.37
2022-12-28T08:47:45.948Z,2.32
2022-12-28T08:48:48.480Z,3.96
2022-12-28T08:49:51.010Z,2.44
2022-12-28T08:50:53.952Z,1.96
2022-12-28T08:51:56.527Z,2.91
2022-12-28T08:52:59.071Z,3.55
2022-12-28T08:54:01.605Z,2.92
2022-12-28T08:55:04.181Z,3.08
2022-12-28T08:56:07.232Z,2.96
2022-12-28T08:57:10.022Z,3.79
2022-12-28T08:58:12.570Z,3.29
2022-12-28T08:59:15.200Z,2.59
2022-12-28T09:00:18.384Z,2.14
2022-12-28T09:01:20.987Z,2.22
2022-12-28T09:02:23.866Z,2.72
2022-12-28T09:03:26.705Z,2.97
2022-12-28T09:04:29.289Z,2.71
2022-12-28T09:05:37.529Z,3.14
2022-12-28T09:06:36.487Z,2.34
2022-12-28T09:07:39.039Z,3.75
2022-12-28T09:08:42.559Z,2.95
2022-12-28T09:09:45.491Z,2.89
2022-12-28T09:10:48.370Z,1.60
2022-12-28T09:11:50.924Z,2.55
2022-12-28T09:12:53.483Z,2.51
2022-12-28T09:13:56.008Z,1.98
2022-12-28T09:14:58.673Z,2.14
2022-12-28T09:16:01.334Z,2.89
2022-12-28T09:17:04.116Z,2.97
2022-12-28T09:18:06.695Z,3.73
2022-12-28T09:19:09.249Z,2.98
2022-12-28T09:20:13.354Z,3.29
2022-12-28T09:21:15.879Z,2.91
2022-12-28T09:22:18.418Z,4.25
2022-12-28T09:23:20.977Z,1.81
2022-12-28T09:24:23.518Z,2.47
2022-12-28T09:25:26.141Z,2.43
2022-12-28T09:26:28.989Z,1.73
2022-12-28T09:27:31.500Z,2.51
2022-12-28T09:28:34.069Z,2.51
2022-12-28T09:29:36.609Z,4.53
2022-12-28T09:30:39.380Z,2.60
2022-12-28T09:31:42.059Z,2.85
2022-12-28T09:32:44.744Z,3.27
2022-12-28T09:34:23.268Z,1.85
2022-12-28T09:34:51.645Z,2.66
2022-12-28T09:35:54.194Z,1.84
2022-12-28T09:36:56.946Z,2.44
2022-12-28T09:37:59.492Z,2.80
2022-12-28T09:39:02.556Z,2.62
2022-12-28T09:40:05.255Z,2.51
2022-12-28T09:41:07.722Z,2.44
2022-12-28T09:42:10.257Z,2.05
2022-12-28T09:43:12.788Z,1.70
2022-12-28T09:44:15.404Z,1.87
2022-12-28T09:45:17.923Z,1.99
2022-12-28T09:46:20.716Z,1.84
2022-12-28T09:47:23.304Z,2.20
2022-12-28T09:48:26.021Z,2.30
2022-12-28T09:49:28.594Z,2.30
2022-12-28T09:50:31.149Z,1.95
2022-12-28T09:51:33.691Z,2.72
2022-12-28T09:52:36.239Z,2.10
2022-12-28T09:53:38.769Z,3.10
2022-12-28T09:54:41.336Z,2.92
2022-12-28T09:55:44.420Z,3.36
2022-12-28T09:56:47.034Z,2.96
2022-12-28T09:57:49.566Z,3.00
2022-12-28T09:58:52.110Z,3.33
2022-12-28T09:59:54.666Z,2.83
2022-12-28T10:00:57.769Z,3.62
2022-12-28T10:02:00.410Z,2.42
2022-12-28T10:03:03.142Z,3.13
2022-12-28T10:04:05.768Z,2.93
2022-12-28T10:05:08.335Z,1.45
2022-12-28T10:06:11.461Z,2.03
2022-12-28T10:07:13.989Z,2.37
2022-12-28T10:08:16.449Z,2.39
2022-12-28T10:09:19.006Z,2.30
2022-12-28T10:10:21.787Z,2.22
2022-12-28T10:11:24.326Z,2.95
2022-12-28T10:12:26.859Z,2.12
2022-12-28T10:13:53.748Z,2.18
2022-12-28T10:14:33.749Z,2.16
2022-12-28T10:15:36.335Z,1.45
2022-12-28T10:16:41.773Z,1.86
2022-12-28T10:17:43.619Z,2.21
2022-12-28T10:18:46.152Z,2.53
2022-12-28T10:19:48.746Z,3.21
2022-12-28T10:20:51.486Z,4.03
2022-12-28T10:21:54.023Z,3.01
2022-12-28T10:22:56.654Z,4.63
2022-12-28T10:25:03.630Z,2.02
2022-12-28T10:26:06.753Z,1.74
2022-12-28T10:27:09.274Z,2.79
2022-12-28T10:28:11.815Z,1.59
2022-12-28T10:29:14.334Z,2.12
2022-12-28T10:30:17.093Z,2.18
2022-12-28T10:31:19.699Z,1.91
2022-12-28T10:32:22.394Z,2.53
2022-12-28T10:33:24.915Z,2.53
2022-12-28T10:34:33.453Z,2.82
2022-12-28T10:35:31.713Z,2.15
2022-12-28T10:36:34.727Z,2.53
2022-12-28T10:37:37.257Z,2.16
2022-12-28T10:38:39.784Z,2.29
2022-12-28T10:39:42.309Z,2.09
2022-12-28T10:40:45.248Z,1.42
2022-12-28T10:41:47.860Z,1.93
2022-12-28T10:42:50.360Z,2.13
2022-12-28T10:44:21.406Z,1.75
2022-12-28T10:44:57.249Z,2.28
2022-12-28T10:46:00.199Z,2.66
2022-12-28T10:47:02.775Z,2.57
2022-12-28T10:48:05.287Z,2.05
2022-12-28T10:49:11.015Z,2.55
2022-12-28T10:51:18.275Z,2.45
2022-12-28T10:52:20.867Z,1.73
2022-12-28T10:53:23.399Z,2.67
2022-12-28T10:54:28.032Z,1.82
2022-12-28T10:55:30.309Z,2.08
2022-12-28T10:56:33.097Z,2.44
2022-12-28T10:57:38.105Z,2.87
2022-12-28T10:58:40.343Z,2.65
2022-12-28T10:59:42.911Z,2.04
2022-12-28T11:00:52.312Z,2.58
2022-12-28T11:01:50.405Z,1.27
2022-12-28T11:02:53.486Z,2.35
2022-12-28T11:03:56.365Z,2.06
2022-12-28T11:04:59.031Z,1.66
2022-12-28T11:06:01.524Z,2.41
2022-12-28T11:07:04.097Z,1.86
2022-12-28T11:08:06.670Z,2.41
2022-12-28T11:09:09.206Z,1.98
2022-12-28T11:10:12.654Z,2.31
2022-12-28T11:11:15.220Z,2.07
2022-12-28T11:12:17.717Z,2.10
2022-12-28T11:13:22.098Z,1.55
2022-12-28T11:14:24.673Z,1.38
2022-12-28T11:15:27.260Z,2.38
2022-12-28T11:16:30.354Z,1.50
2022-12-28T11:17:33.242Z,2.48
2022-12-28T11:18:38.097Z,1.65
2022-12-28T11:19:40.213Z,1.86
2022-12-28T11:20:42.986Z,2.00
2022-12-28T11:21:45.561Z,2.71
2022-12-28T11:22:48.092Z,1.96
2022-12-28T11:23:50.682Z,2.38
2022-12-28T11:24:53.344Z,2.52
2022-12-28T11:25:55.894Z,2.83
2022-12-28T11:26:58.765Z,2.01
2022-12-28T11:28:01.415Z,1.72
2022-12-28T11:29:04.011Z,2.03
2022-12-28T11:30:11.073Z,2.02
2022-12-28T11:31:11.793Z,1.55
2022-12-28T11:32:14.497Z,1.83
2022-12-28T11:33:17.032Z,1.23
2022-12-28T11:34:19.627Z,1.49
2022-12-28T11:35:22.157Z,1.49
2022-12-28T11:36:24.910Z,1.71
2022-12-28T11:37:27.425Z,2.86
2022-12-28T11:38:30.119Z,2.32
2022-12-28T11:39:32.696Z,2.36
2022-12-28T11:40:35.561Z,2.98
2022-12-28T11:41:38.135Z,3.53
2022-12-28T11:42:41.649Z,3.01
2022-12-28T11:43:44.317Z,5.44
2022-12-28T11:44:46.882Z,3.33
2022-12-28T11:45:49.536Z,4.71
2022-12-28T11:46:52.484Z,1.62
2022-12-28T11:47:55.033Z,1.87
2022-12-28T11:48:57.656Z,1.37
2022-12-28T11:50:00.359Z,1.57
2022-12-28T11:51:02.850Z,1.54
2022-12-28T11:52:05.391Z,1.55
2022-12-28T11:53:13.717Z,1.03
2022-12-28T11:54:12.288Z,0.99
2022-12-28T11:55:15.238Z,1.71
2022-12-28T11:56:18.178Z,0.92
2022-12-28T11:57:20.703Z,1.03
2022-12-28T11:58:23.240Z,1.30
2022-12-28T11:59:25.853Z,1.33
2022-12-28T19:19:59.830Z,3.84
2022-12-28T19:22:13.912Z,3.62
2022-12-28T19:23:16.577Z,3.63
2022-12-28T19:24:19.120Z,3.27
2022-12-28T19:25:21.791Z,3.71
